sensor_id;sensor_type;location;lat;lon;timestamp;P1;durP1;ratioP1;P2;durP2;ratioP2
86019;SDS011;76596;51.056;-1.798;2024-02-14T12:51:07;5.25;;;1.50;;
86019;SDS011;76596;51.056;-1.798;2024-02-14T12:53:33;2.53;;;1.40;;
86019;SDS011;76596;51.056;-1.798;2024-02-14T12:55:59;2.80;;;1.30;;
86019;SDS011;76596;51.056;-1.798;2024-02-14T12:58:24;3.03;;;1.35;;
86019;SDS011;76596;51.056;-1.798;2024-02-14T13:00:50;2.63;;;1.20;;
86019;SDS011;76596;51.056;-1.798;2024-02-14T13:03:15;1.93;;;1.10;;
86019;SDS011;76596;51.056;-1.798;2024-02-14T13:05:41;5.22;;;1.65;;
86019;SDS011;76596;51.056;-1.798;2024-02-14T13:08:07;3.67;;;1.45;;
86019;SDS011;76596;51.056;-1.798;2024-02-14T13:12:20;4.80;;;1.95;;
86019;SDS011;76596;51.056;-1.798;2024-02-14T13:14:49;3.10;;;1.33;;
86019;SDS011;76596;51.056;-1.798;2024-02-14T13:17:14;4.30;;;1.88;;
86019;SDS011;76596;51.056;-1.798;2024-02-14T13:19:40;3.50;;;1.95;;
86019;SDS011;76596;51.056;-1.798;2024-02-14T13:22:07;11.27;;;2.78;;
86019;SDS011;76596;51.056;-1.798;2024-02-14T13:24:37;4.47;;;1.90;;
86019;SDS011;76596;51.056;-1.798;2024-02-14T13:27:03;8.82;;;1.90;;
86019;SDS011;76596;51.056;-1.798;2024-02-14T13:29:32;8.77;;;2.22;;
86019;SDS011;76596;51.056;-1.798;2024-02-14T13:31:57;5.78;;;2.65;;
86019;SDS011;76596;51.056;-1.798;2024-02-14T13:34:23;5.65;;;1.75;;
86019;SDS011;76596;51.056;-1.798;2024-02-14T13:36:49;10.45;;;2.85;;
86019;SDS011;76596;51.056;-1.798;2024-02-14T13:42:24;6.18;;;1.92;;
86019;SDS011;76596;51.056;-1.798;2024-02-14T13:44:50;3.58;;;1.60;;
86019;SDS011;76596;51.056;-1.798;2024-02-14T13:47:18;4.68;;;2.05;;
86019;SDS011;76596;51.056;-1.798;2024-02-14T13:49:44;5.35;;;1.95;;
86019;SDS011;76596;51.056;-1.798;2024-02-14T13:52:09;4.35;;;2.20;;
86019;SDS011;76596;51.056;-1.798;2024-02-14T13:54:35;7.05;;;2.05;;
86019;SDS011;76596;51.056;-1.798;2024-02-14T13:57:01;5.70;;;2.55;;
86019;SDS011;76596;51.056;-1.798;2024-02-14T13:59:27;8.93;;;2.92;;
86019;SDS011;76596;51.056;-1.798;2024-02-14T14:01:53;5.47;;;2.60;;
86019;SDS011;76596;51.056;-1.798;2024-02-14T14:04:21;10.50;;;3.05;;
86019;SDS011;76596;51.056;-1.798;2024-02-14T14:06:47;8.68;;;3.08;;
86019;SDS011;76596;51.056;-1.798;2024-02-14T14:09:12;10.40;;;2.70;;
86019;SDS011;76596;51.056;-1.798;2024-02-14T14:11:38;9.38;;;2.40;;
86019;SDS011;76596;51.056;-1.798;2024-02-14T14:14:04;7.20;;;2.00;;
86019;SDS011;76596;51.056;-1.798;2024-02-14T14:16:30;6.18;;;1.70;;
86019;SDS011;76596;51.056;-1.798;2024-02-14T14:18:58;6.28;;;1.75;;
86019;SDS011;76596;51.056;-1.798;2024-02-14T14:21:24;3.42;;;1.25;;
86019;SDS011;76596;51.056;-1.798;2024-02-14T14:23:49;6.82;;;2.20;;
86019;SDS011;76596;51.056;-1.798;2024-02-14T14:26:15;6.28;;;1.70;;
86019;SDS011;76596;51.056;-1.798;2024-02-14T14:28:41;6.38;;;1.95;;
86019;SDS011;76596;51.056;-1.798;2024-02-14T14:31:07;9.50;;;1.77;;
86019;SDS011;76596;51.056;-1.798;2024-02-14T14:33:36;5.57;;;2.00;;
86019;SDS011;76596;51.056;-1.798;2024-02-14T14:36:01;5.20;;;1.95;;
86019;SDS011;76596;51.056;-1.798;2024-02-14T14:38:28;9.13;;;2.50;;
86019;SDS011;76596;51.056;-1.798;2024-02-14T14:40:54;13.10;;;2.72;;
86019;SDS011;76596;51.056;-1.798;2024-02-14T14:43:20;8.32;;;2.38;;
86019;SDS011;76596;51.056;-1.798;2024-02-14T14:45:46;5.82;;;2.42;;
86019;SDS011;76596;51.056;-1.798;2024-02-14T14:48:12;11.20;;;4.22;;
86019;SDS011;76596;51.056;-1.798;2024-02-14T14:50:37;7.50;;;2.17;;
86019;SDS011;76596;51.056;-1.798;2024-02-14T14:53:03;4.50;;;2.35;;
86019;SDS011;76596;51.056;-1.798;2024-02-14T14:58:26;15.68;;;3.35;;
86019;SDS011;76596;51.056;-1.798;2024-02-14T15:00:56;13.48;;;3.15;;
86019;SDS011;76596;51.056;-1.798;2024-02-14T15:03:23;8.35;;;3.22;;
86019;SDS011;76596;51.056;-1.798;2024-02-14T15:05:49;17.25;;;3.75;;
86019;SDS011;76596;51.056;-1.798;2024-02-14T15:08:15;9.93;;;2.78;;
86019;SDS011;76596;51.056;-1.798;2024-02-14T15:10:48;6.25;;;2.70;;
86019;SDS011;76596;51.056;-1.798;2024-02-14T15:13:15;10.00;;;2.42;;
86019;SDS011;76596;51.056;-1.798;2024-02-14T15:15:41;7.07;;;2.15;;
86019;SDS011;76596;51.056;-1.798;2024-02-14T15:18:06;6.05;;;2.80;;
86019;SDS011;76596;51.056;-1.798;2024-02-14T15:20:32;6.57;;;2.67;;
86019;SDS011;76596;51.056;-1.798;2024-02-14T15:23:01;4.05;;;2.20;;
86019;SDS011;76596;51.056;-1.798;2024-02-14T15:25:27;10.93;;;3.25;;
86019;SDS011;76596;51.056;-1.798;2024-02-14T15:27:52;6.72;;;1.58;;
86019;SDS011;76596;51.056;-1.798;2024-02-14T15:30:24;6.43;;;2.05;;
86019;SDS011;76596;51.056;-1.798;2024-02-14T15:33:09;12.05;;;3.80;;
86019;SDS011;76596;51.056;-1.798;2024-02-14T15:35:48;1.98;;;1.20;;
86019;SDS011;76596;51.056;-1.798;2024-02-14T15:38:21;8.43;;;1.52;;
86019;SDS011;76596;51.056;-1.798;2024-02-14T15:40:50;4.50;;;1.40;;
86019;SDS011;76596;51.056;-1.798;2024-02-14T15:43:22;3.53;;;1.73;;
86019;SDS011;76596;51.056;-1.798;2024-02-14T15:45:48;1.67;;;1.23;;
86019;SDS011;76596;51.056;-1.798;2024-02-14T15:48:14;5.75;;;1.50;;
86019;SDS011;76596;51.056;-1.798;2024-02-14T15:50:44;3.53;;;1.42;;
86019;SDS011;76596;51.056;-1.798;2024-02-14T15:53:13;2.58;;;1.10;;
86019;SDS011;76596;51.056;-1.798;2024-02-14T15:55:40;1.60;;;1.20;;
86019;SDS011;76596;51.056;-1.798;2024-02-14T15:58:06;3.30;;;1.00;;
86019;SDS011;76596;51.056;-1.798;2024-02-14T16:00:33;3.50;;;1.10;;
86019;SDS011;76596;51.056;-1.798;2024-02-14T16:02:59;3.83;;;1.30;;
86019;SDS011;76596;51.056;-1.798;2024-02-14T16:05:26;0.95;;;0.90;;
86019;SDS011;76596;51.056;-1.798;2024-02-14T16:07:54;2.10;;;0.80;;
86019;SDS011;76596;51.056;-1.798;2024-02-14T16:10:20;6.85;;;1.50;;
86019;SDS011;76596;51.056;-1.798;2024-02-14T16:12:46;6.38;;;2.83;;
86019;SDS011;76596;51.056;-1.798;2024-02-14T16:15:14;6.18;;;1.70;;
86019;SDS011;76596;51.056;-1.798;2024-02-14T16:17:42;6.13;;;2.58;;
86019;SDS011;76596;51.056;-1.798;2024-02-14T16:20:11;6.95;;;2.00;;
86019;SDS011;76596;51.056;-1.798;2024-02-14T16:22:38;4.97;;;1.90;;
86019;SDS011;76596;51.056;-1.798;2024-02-14T16:25:07;7.72;;;2.63;;
86019;SDS011;76596;51.056;-1.798;2024-02-14T16:27:34;5.18;;;2.13;;
86019;SDS011;76596;51.056;-1.798;2024-02-14T16:30:01;4.90;;;2.30;;
86019;SDS011;76596;51.056;-1.798;2024-02-14T16:32:29;3.28;;;1.75;;
86019;SDS011;76596;51.056;-1.798;2024-02-14T16:34:54;5.22;;;1.85;;
86019;SDS011;76596;51.056;-1.798;2024-02-14T16:37:20;6.37;;;2.43;;
86019;SDS011;76596;51.056;-1.798;2024-02-14T16:39:46;8.48;;;2.28;;
86019;SDS011;76596;51.056;-1.798;2024-02-14T16:42:14;6.22;;;2.65;;
86019;SDS011;76596;51.056;-1.798;2024-02-14T16:44:39;6.32;;;1.75;;
86019;SDS011;76596;51.056;-1.798;2024-02-14T16:47:05;12.23;;;2.33;;
86019;SDS011;76596;51.056;-1.798;2024-02-14T16:49:31;5.25;;;1.77;;
86019;SDS011;76596;51.056;-1.798;2024-02-14T16:51:57;7.55;;;2.42;;
86019;SDS011;76596;51.056;-1.798;2024-02-14T16:54:23;6.68;;;1.70;;
86019;SDS011;76596;51.056;-1.798;2024-02-14T16:56:51;3.83;;;2.15;;
86019;SDS011;76596;51.056;-1.798;2024-02-14T16:59:16;3.97;;;1.73;;
86019;SDS011;76596;51.056;-1.798;2024-02-14T17:01:42;4.80;;;2.00;;
86019;SDS011;76596;51.056;-1.798;2024-02-14T17:04:07;8.48;;;2.22;;
86019;SDS011;76596;51.056;-1.798;2024-02-14T17:06:32;13.07;;;2.70;;
86019;SDS011;76596;51.056;-1.798;2024-02-14T17:08:58;8.43;;;2.20;;
86019;SDS011;76596;51.056;-1.798;2024-02-14T17:11:23;10.10;;;2.77;;
86019;SDS011;76596;51.056;-1.798;2024-02-14T17:13:50;17.85;;;2.95;;
86019;SDS011;76596;51.056;-1.798;2024-02-14T17:16:15;14.40;;;3.15;;
86019;SDS011;76596;51.056;-1.798;2024-02-14T17:18:41;14.18;;;3.65;;
86019;SDS011;76596;51.056;-1.798;2024-02-14T17:21:06;10.73;;;3.10;;
86019;SDS011;76596;51.056;-1.798;2024-02-14T17:23:32;17.33;;;3.33;;
86019;SDS011;76596;51.056;-1.798;2024-02-14T17:25:58;20.23;;;3.50;;
86019;SDS011;76596;51.056;-1.798;2024-02-14T17:28:23;11.30;;;3.40;;
86019;SDS011;76596;51.056;-1.798;2024-02-14T17:30:49;11.00;;;3.47;;
86019;SDS011;76596;51.056;-1.798;2024-02-14T17:33:16;15.35;;;3.83;;
86019;SDS011;76596;51.056;-1.798;2024-02-14T17:35:41;10.48;;;3.38;;
86019;SDS011;76596;51.056;-1.798;2024-02-14T17:38:07;18.27;;;4.90;;
86019;SDS011;76596;51.056;-1.798;2024-02-14T17:40:33;21.67;;;4.13;;
86019;SDS011;76596;51.056;-1.798;2024-02-14T17:42:58;14.00;;;3.53;;
86019;SDS011;76596;51.056;-1.798;2024-02-14T17:45:23;12.97;;;4.10;;
86019;SDS011;76596;51.056;-1.798;2024-02-14T17:47:49;13.57;;;4.07;;
86019;SDS011;76596;51.056;-1.798;2024-02-14T17:50:14;20.25;;;4.50;;
86019;SDS011;76596;51.056;-1.798;2024-02-14T17:52:41;20.05;;;3.72;;
86019;SDS011;76596;51.056;-1.798;2024-02-14T17:55:07;16.20;;;3.35;;
86019;SDS011;76596;51.056;-1.798;2024-02-14T17:57:33;19.10;;;4.32;;
86019;SDS011;76596;51.056;-1.798;2024-02-14T17:59:59;19.20;;;4.20;;
86019;SDS011;76596;51.056;-1.798;2024-02-14T18:02:24;27.20;;;4.87;;
86019;SDS011;76596;51.056;-1.798;2024-02-14T18:04:50;13.93;;;3.70;;
86019;SDS011;76596;51.056;-1.798;2024-02-14T18:07:16;19.40;;;5.90;;
86019;SDS011;76596;51.056;-1.798;2024-02-14T18:09:41;15.02;;;3.97;;
86019;SDS011;76596;51.056;-1.798;2024-02-14T18:12:07;18.10;;;3.60;;
86019;SDS011;76596;51.056;-1.798;2024-02-14T18:14:33;12.00;;;3.30;;
86019;SDS011;76596;51.056;-1.798;2024-02-14T18:16:59;15.15;;;3.78;;
86019;SDS011;76596;51.056;-1.798;2024-02-14T18:19:24;15.87;;;3.77;;
86019;SDS011;76596;51.056;-1.798;2024-02-14T18:21:50;19.05;;;4.10;;
86019;SDS011;76596;51.056;-1.798;2024-02-14T18:24:16;13.43;;;3.88;;
86019;SDS011;76596;51.056;-1.798;2024-02-14T18:26:42;13.25;;;3.88;;
86019;SDS011;76596;51.056;-1.798;2024-02-14T18:29:08;24.85;;;3.92;;
86019;SDS011;76596;51.056;-1.798;2024-02-14T18:31:35;20.45;;;4.25;;
86019;SDS011;76596;51.056;-1.798;2024-02-14T18:34:00;24.48;;;4.20;;
86019;SDS011;76596;51.056;-1.798;2024-02-14T18:36:26;18.50;;;4.03;;
86019;SDS011;76596;51.056;-1.798;2024-02-14T18:38:51;25.23;;;5.78;;
86019;SDS011;76596;51.056;-1.798;2024-02-14T18:41:18;25.33;;;4.40;;
86019;SDS011;76596;51.056;-1.798;2024-02-14T18:43:43;20.63;;;4.65;;
86019;SDS011;76596;51.056;-1.798;2024-02-14T18:46:08;18.47;;;4.20;;
86019;SDS011;76596;51.056;-1.798;2024-02-14T18:48:34;17.27;;;6.00;;
86019;SDS011;76596;51.056;-1.798;2024-02-14T18:51:02;13.20;;;4.68;;
86019;SDS011;76596;51.056;-1.798;2024-02-14T18:53:27;16.13;;;3.97;;
86019;SDS011;76596;51.056;-1.798;2024-02-14T18:55:53;14.27;;;3.67;;
86019;SDS011;76596;51.056;-1.798;2024-02-14T18:58:20;15.40;;;4.03;;
86019;SDS011;76596;51.056;-1.798;2024-02-14T19:00:45;21.20;;;3.97;;
86019;SDS011;76596;51.056;-1.798;2024-02-14T19:03:11;13.13;;;3.50;;
86019;SDS011;76596;51.056;-1.798;2024-02-14T19:05:36;16.40;;;4.22;;
86019;SDS011;76596;51.056;-1.798;2024-02-14T19:08:02;15.77;;;3.83;;
86019;SDS011;76596;51.056;-1.798;2024-02-14T19:10:28;16.67;;;3.97;;
86019;SDS011;76596;51.056;-1.798;2024-02-14T19:12:53;12.63;;;4.25;;
86019;SDS011;76596;51.056;-1.798;2024-02-14T19:15:18;9.57;;;3.38;;
86019;SDS011;76596;51.056;-1.798;2024-02-14T19:17:45;14.70;;;3.92;;
86019;SDS011;76596;51.056;-1.798;2024-02-14T19:20:10;11.20;;;3.67;;
86019;SDS011;76596;51.056;-1.798;2024-02-14T19:22:36;9.40;;;3.42;;
86019;SDS011;76596;51.056;-1.798;2024-02-14T19:25:02;8.57;;;3.08;;
86019;SDS011;76596;51.056;-1.798;2024-02-14T19:27:28;8.90;;;3.33;;
86019;SDS011;76596;51.056;-1.798;2024-02-14T19:29:53;17.58;;;4.15;;
86019;SDS011;76596;51.056;-1.798;2024-02-14T19:32:19;11.25;;;4.30;;
86019;SDS011;76596;51.056;-1.798;2024-02-14T19:34:44;12.35;;;4.18;;
86019;SDS011;76596;51.056;-1.798;2024-02-14T19:37:10;8.00;;;2.97;;
86019;SDS011;76596;51.056;-1.798;2024-02-14T19:39:35;11.47;;;4.10;;
86019;SDS011;76596;51.056;-1.798;2024-02-14T19:42:01;16.15;;;4.57;;
86019;SDS011;76596;51.056;-1.798;2024-02-14T19:44:26;12.85;;;3.78;;
86019;SDS011;76596;51.056;-1.798;2024-02-14T19:46:51;10.07;;;3.90;;
86019;SDS011;76596;51.056;-1.798;2024-02-14T19:49:18;12.73;;;4.43;;
86019;SDS011;76596;51.056;-1.798;2024-02-14T19:51:45;12.75;;;4.07;;
86019;SDS011;76596;51.056;-1.798;2024-02-14T19:54:10;12.40;;;4.28;;
86019;SDS011;76596;51.056;-1.798;2024-02-14T19:56:37;6.85;;;3.45;;
86019;SDS011;76596;51.056;-1.798;2024-02-14T19:59:03;9.25;;;3.20;;
86019;SDS011;76596;51.056;-1.798;2024-02-14T20:01:28;8.57;;;3.15;;
86019;SDS011;76596;51.056;-1.798;2024-02-14T20:03:54;7.90;;;3.17;;
86019;SDS011;76596;51.056;-1.798;2024-02-14T20:06:23;8.10;;;3.05;;
86019;SDS011;76596;51.056;-1.798;2024-02-14T20:08:49;5.38;;;2.70;;
86019;SDS011;76596;51.056;-1.798;2024-02-14T20:11:15;10.20;;;4.18;;
86019;SDS011;76596;51.056;-1.798;2024-02-14T20:13:40;7.32;;;3.38;;
86019;SDS011;76596;51.056;-1.798;2024-02-14T20:16:06;7.03;;;3.13;;
86019;SDS011;76596;51.056;-1.798;2024-02-14T20:18:32;9.15;;;3.00;;
86019;SDS011;76596;51.056;-1.798;2024-02-14T20:20:58;10.15;;;2.90;;
86019;SDS011;76596;51.056;-1.798;2024-02-14T20:23:23;6.00;;;2.95;;
86019;SDS011;76596;51.056;-1.798;2024-02-14T20:25:49;8.18;;;2.75;;
86019;SDS011;76596;51.056;-1.798;2024-02-14T20:28:14;6.43;;;3.05;;
86019;SDS011;76596;51.056;-1.798;2024-02-14T20:30:41;5.28;;;2.67;;
86019;SDS011;76596;51.056;-1.798;2024-02-14T20:33:07;5.80;;;3.65;;
86019;SDS011;76596;51.056;-1.798;2024-02-14T20:35:32;5.93;;;3.63;;
86019;SDS011;76596;51.056;-1.798;2024-02-14T20:38:00;8.15;;;4.53;;
86019;SDS011;76596;51.056;-1.798;2024-02-14T20:40:27;8.35;;;4.03;;
86019;SDS011;76596;51.056;-1.798;2024-02-14T20:42:54;9.20;;;4.10;;
86019;SDS011;76596;51.056;-1.798;2024-02-14T20:45:20;9.50;;;4.55;;
86019;SDS011;76596;51.056;-1.798;2024-02-14T20:47:45;8.67;;;4.97;;
86019;SDS011;76596;51.056;-1.798;2024-02-14T20:50:12;6.70;;;4.43;;
86019;SDS011;76596;51.056;-1.798;2024-02-14T20:52:38;14.98;;;5.00;;
86019;SDS011;76596;51.056;-1.798;2024-02-14T20:55:03;7.72;;;4.63;;
86019;SDS011;76596;51.056;-1.798;2024-02-14T20:57:29;8.18;;;4.18;;
86019;SDS011;76596;51.056;-1.798;2024-02-14T20:59:54;12.63;;;4.43;;
86019;SDS011;76596;51.056;-1.798;2024-02-14T21:02:20;9.98;;;4.40;;
86019;SDS011;76596;51.056;-1.798;2024-02-14T21:04:45;7.30;;;4.23;;
86019;SDS011;76596;51.056;-1.798;2024-02-14T21:07:11;6.55;;;3.60;;
86019;SDS011;76596;51.056;-1.798;2024-02-14T21:09:40;8.77;;;4.22;;
86019;SDS011;76596;51.056;-1.798;2024-02-14T21:12:09;6.63;;;3.95;;
86019;SDS011;76596;51.056;-1.798;2024-02-14T21:14:38;5.85;;;3.42;;
86019;SDS011;76596;51.056;-1.798;2024-02-14T21:17:03;6.90;;;3.88;;
86019;SDS011;76596;51.056;-1.798;2024-02-14T21:19:29;8.60;;;3.97;;
86019;SDS011;76596;51.056;-1.798;2024-02-14T21:21:55;6.82;;;4.10;;
86019;SDS011;76596;51.056;-1.798;2024-02-14T21:24:20;7.00;;;4.32;;
86019;SDS011;76596;51.056;-1.798;2024-02-14T21:26:46;5.15;;;3.53;;
86019;SDS011;76596;51.056;-1.798;2024-02-14T21:29:14;5.40;;;3.65;;
86019;SDS011;76596;51.056;-1.798;2024-02-14T21:31:40;7.28;;;4.03;;
86019;SDS011;76596;51.056;-1.798;2024-02-14T21:34:05;7.78;;;4.07;;
86019;SDS011;76596;51.056;-1.798;2024-02-14T21:36:30;8.90;;;3.87;;
86019;SDS011;76596;51.056;-1.798;2024-02-14T21:38:57;5.63;;;4.00;;
86019;SDS011;76596;51.056;-1.798;2024-02-14T21:41:22;6.00;;;3.92;;
86019;SDS011;76596;51.056;-1.798;2024-02-14T21:43:48;7.38;;;5.10;;
86019;SDS011;76596;51.056;-1.798;2024-02-14T21:46:13;5.80;;;3.60;;
86019;SDS011;76596;51.056;-1.798;2024-02-14T21:48:40;5.57;;;3.72;;
86019;SDS011;76596;51.056;-1.798;2024-02-14T21:51:05;5.40;;;3.37;;
86019;SDS011;76596;51.056;-1.798;2024-02-14T21:53:34;6.30;;;3.80;;
86019;SDS011;76596;51.056;-1.798;2024-02-14T21:56:00;5.05;;;3.60;;
86019;SDS011;76596;51.056;-1.798;2024-02-14T21:58:25;5.37;;;3.47;;
86019;SDS011;76596;51.056;-1.798;2024-02-14T22:00:51;4.53;;;3.08;;
86019;SDS011;76596;51.056;-1.798;2024-02-14T22:03:16;7.50;;;4.63;;
86019;SDS011;76596;51.056;-1.798;2024-02-14T22:05:42;6.47;;;3.53;;
86019;SDS011;76596;51.056;-1.798;2024-02-14T22:08:07;8.18;;;3.97;;
86019;SDS011;76596;51.056;-1.798;2024-02-14T22:10:33;7.68;;;5.03;;
86019;SDS011;76596;51.056;-1.798;2024-02-14T22:12:58;11.17;;;4.13;;
86019;SDS011;76596;51.056;-1.798;2024-02-14T22:15:24;9.63;;;5.35;;
86019;SDS011;76596;51.056;-1.798;2024-02-14T22:17:50;9.23;;;4.78;;
86019;SDS011;76596;51.056;-1.798;2024-02-14T22:20:16;8.68;;;5.00;;
86019;SDS011;76596;51.056;-1.798;2024-02-14T22:22:43;9.23;;;5.25;;
86019;SDS011;76596;51.056;-1.798;2024-02-14T22:25:08;9.70;;;5.47;;
86019;SDS011;76596;51.056;-1.798;2024-02-14T22:27:34;9.40;;;4.87;;
86019;SDS011;76596;51.056;-1.798;2024-02-14T22:29:59;8.57;;;4.77;;
86019;SDS011;76596;51.056;-1.798;2024-02-14T22:32:25;8.65;;;4.72;;
86019;SDS011;76596;51.056;-1.798;2024-02-14T22:34:50;7.20;;;4.55;;
86019;SDS011;76596;51.056;-1.798;2024-02-14T22:37:16;8.13;;;3.83;;
86019;SDS011;76596;51.056;-1.798;2024-02-14T22:39:41;6.90;;;3.95;;
86019;SDS011;76596;51.056;-1.798;2024-02-14T22:42:07;6.65;;;3.75;;
86019;SDS011;76596;51.056;-1.798;2024-02-14T22:44:33;9.07;;;4.03;;
86019;SDS011;76596;51.056;-1.798;2024-02-14T22:47:01;5.25;;;3.55;;
86019;SDS011;76596;51.056;-1.798;2024-02-14T22:49:27;8.43;;;4.53;;
86019;SDS011;76596;51.056;-1.798;2024-02-14T22:51:52;8.75;;;3.90;;
86019;SDS011;76596;51.056;-1.798;2024-02-14T22:54:18;7.43;;;4.38;;
86019;SDS011;76596;51.056;-1.798;2024-02-14T22:56:44;6.85;;;4.40;;
86019;SDS011;76596;51.056;-1.798;2024-02-14T22:59:10;9.73;;;4.50;;
86019;SDS011;76596;51.056;-1.798;2024-02-14T23:01:35;5.93;;;3.67;;
86019;SDS011;76596;51.056;-1.798;2024-02-14T23:04:01;6.15;;;4.35;;
86019;SDS011;76596;51.056;-1.798;2024-02-14T23:06:28;6.72;;;4.88;;
86019;SDS011;76596;51.056;-1.798;2024-02-14T23:08:55;9.75;;;4.75;;
86019;SDS011;76596;51.056;-1.798;2024-02-14T23:11:20;10.63;;;5.47;;
86019;SDS011;76596;51.056;-1.798;2024-02-14T23:13:48;14.02;;;5.80;;
86019;SDS011;76596;51.056;-1.798;2024-02-14T23:16:14;17.45;;;6.45;;
86019;SDS011;76596;51.056;-1.798;2024-02-14T23:18:39;14.93;;;6.30;;
86019;SDS011;76596;51.056;-1.798;2024-02-14T23:21:04;13.93;;;6.87;;
86019;SDS011;76596;51.056;-1.798;2024-02-14T23:23:32;11.18;;;6.05;;
86019;SDS011;76596;51.056;-1.798;2024-02-14T23:25:58;17.92;;;6.55;;
86019;SDS011;76596;51.056;-1.798;2024-02-14T23:28:24;12.68;;;6.47;;
86019;SDS011;76596;51.056;-1.798;2024-02-14T23:30:49;14.77;;;7.10;;
86019;SDS011;76596;51.056;-1.798;2024-02-14T23:33:15;18.20;;;6.88;;
86019;SDS011;76596;51.056;-1.798;2024-02-14T23:35:41;16.60;;;7.13;;
86019;SDS011;76596;51.056;-1.798;2024-02-14T23:38:10;11.77;;;6.38;;
86019;SDS011;76596;51.056;-1.798;2024-02-14T23:40:36;13.50;;;6.50;;
86019;SDS011;76596;51.056;-1.798;2024-02-14T23:43:02;15.70;;;5.93;;
86019;SDS011;76596;51.056;-1.798;2024-02-14T23:45:28;12.30;;;5.57;;
86019;SDS011;76596;51.056;-1.798;2024-02-14T23:47:54;12.00;;;6.18;;
86019;SDS011;76596;51.056;-1.798;2024-02-14T23:50:20;8.45;;;4.70;;
86019;SDS011;76596;51.056;-1.798;2024-02-14T23:52:46;9.75;;;4.93;;
86019;SDS011;76596;51.056;-1.798;2024-02-14T23:55:11;11.85;;;5.07;;
86019;SDS011;76596;51.056;-1.798;2024-02-14T23:57:37;10.77;;;4.90;;
